sensor_id;sensor_type;location;lat;lon;timestamp;P1;durP1;ratioP1;P2;durP2;ratioP2
36629;SDS011;36256;42.154;23.002;2022-11-18T00:01:12;71.97;;;13.03;;
36629;SDS011;36256;42.154;23.002;2022-11-18T00:03:41;23.83;;;13.60;;
36629;SDS011;36256;42.154;23.002;2022-11-18T00:06:12;23.70;;;13.18;;
36629;SDS011;36256;42.154;23.002;2022-11-18T00:08:40;26.90;;;12.40;;
36629;SDS011;36256;42.154;23.002;2022-11-18T00:13:35;16.73;;;10.45;;
36629;SDS011;36256;42.154;23.002;2022-11-18T00:16:21;30.95;;;11.35;;
36629;SDS011;36256;42.154;23.002;2022-11-18T00:21:15;33.53;;;9.73;;
36629;SDS011;36256;42.154;23.002;2022-11-18T00:23:42;82.53;;;10.70;;
36629;SDS011;36256;42.154;23.002;2022-11-18T00:26:10;67.63;;;10.25;;
36629;SDS011;36256;42.154;23.002;2022-11-18T00:28:38;64.28;;;10.18;;
36629;SDS011;36256;42.154;23.002;2022-11-18T00:31:07;33.08;;;10.18;;
36629;SDS011;36256;42.154;23.002;2022-11-18T00:33:36;56.10;;;10.45;;
36629;SDS011;36256;42.154;23.002;2022-11-18T00:36:03;99.30;;;11.70;;
36629;SDS011;36256;42.154;23.002;2022-11-18T00:38:30;26.15;;;10.90;;
36629;SDS011;36256;42.154;23.002;2022-11-18T00:40:58;39.70;;;10.00;;
36629;SDS011;36256;42.154;23.002;2022-11-18T00:43:25;47.15;;;10.68;;
36629;SDS011;36256;42.154;23.002;2022-11-18T00:45:52;75.20;;;11.68;;
36629;SDS011;36256;42.154;23.002;2022-11-18T00:48:19;70.32;;;11.57;;
36629;SDS011;36256;42.154;23.002;2022-11-18T00:50:50;31.35;;;10.50;;
36629;SDS011;36256;42.154;23.002;2022-11-18T00:53:18;32.72;;;10.45;;
36629;SDS011;36256;42.154;23.002;2022-11-18T00:58:12;23.65;;;11.35;;
36629;SDS011;36256;42.154;23.002;2022-11-18T01:00:42;22.20;;;12.07;;
36629;SDS011;36256;42.154;23.002;2022-11-18T01:03:11;30.02;;;11.32;;
36629;SDS011;36256;42.154;23.002;2022-11-18T01:05:38;26.23;;;10.98;;
36629;SDS011;36256;42.154;23.002;2022-11-18T01:08:08;28.42;;;12.15;;
36629;SDS011;36256;42.154;23.002;2022-11-18T01:10:36;25.00;;;11.18;;
36629;SDS011;36256;42.154;23.002;2022-11-18T01:13:04;41.42;;;13.25;;
36629;SDS011;36256;42.154;23.002;2022-11-18T01:18:15;61.72;;;13.25;;
36629;SDS011;36256;42.154;23.002;2022-11-18T01:20:43;54.45;;;12.50;;
36629;SDS011;36256;42.154;23.002;2022-11-18T01:23:10;41.65;;;11.70;;
36629;SDS011;36256;42.154;23.002;2022-11-18T01:25:38;25.30;;;11.77;;
36629;SDS011;36256;42.154;23.002;2022-11-18T01:28:06;38.03;;;12.52;;
36629;SDS011;36256;42.154;23.002;2022-11-18T01:30:33;26.85;;;12.98;;
36629;SDS011;36256;42.154;23.002;2022-11-18T01:33:01;23.65;;;12.40;;
36629;SDS011;36256;42.154;23.002;2022-11-18T01:35:35;30.55;;;13.55;;
36629;SDS011;36256;42.154;23.002;2022-11-18T01:38:04;56.92;;;12.70;;
36629;SDS011;36256;42.154;23.002;2022-11-18T01:40:31;37.22;;;12.50;;
36629;SDS011;36256;42.154;23.002;2022-11-18T01:42:59;29.67;;;12.13;;
36629;SDS011;36256;42.154;23.002;2022-11-18T01:45:32;38.75;;;12.05;;
36629;SDS011;36256;42.154;23.002;2022-11-18T01:48:08;52.58;;;11.90;;
36629;SDS011;36256;42.154;23.002;2022-11-18T01:50:36;65.30;;;11.57;;
36629;SDS011;36256;42.154;23.002;2022-11-18T01:53:17;31.02;;;9.82;;
36629;SDS011;36256;42.154;23.002;2022-11-18T01:55:47;56.70;;;10.23;;
36629;SDS011;36256;42.154;23.002;2022-11-18T02:01:03;34.85;;;9.00;;
36629;SDS011;36256;42.154;23.002;2022-11-18T02:03:32;62.38;;;9.63;;
36629;SDS011;36256;42.154;23.002;2022-11-18T02:05:59;49.10;;;10.45;;
36629;SDS011;36256;42.154;23.002;2022-11-18T02:08:28;92.68;;;11.48;;
36629;SDS011;36256;42.154;23.002;2022-11-18T02:10:55;62.90;;;12.45;;
36629;SDS011;36256;42.154;23.002;2022-11-18T02:13:22;38.30;;;11.80;;
36629;SDS011;36256;42.154;23.002;2022-11-18T02:15:55;50.97;;;11.35;;
36629;SDS011;36256;42.154;23.002;2022-11-18T02:26:53;51.83;;;12.88;;
36629;SDS011;36256;42.154;23.002;2022-11-18T02:29:48;68.55;;;12.57;;
36629;SDS011;36256;42.154;23.002;2022-11-18T02:32:25;90.90;;;12.82;;
36629;SDS011;36256;42.154;23.002;2022-11-18T02:38:04;50.05;;;12.38;;
36629;SDS011;36256;42.154;23.002;2022-11-18T02:40:46;94.50;;;12.00;;
36629;SDS011;36256;42.154;23.002;2022-11-18T02:43:20;87.55;;;13.27;;
36629;SDS011;36256;42.154;23.002;2022-11-18T02:45:53;118.25;;;12.65;;
36629;SDS011;36256;42.154;23.002;2022-11-18T02:48:24;129.05;;;13.13;;
36629;SDS011;36256;42.154;23.002;2022-11-18T02:50:54;59.00;;;14.98;;
36629;SDS011;36256;42.154;23.002;2022-11-18T02:53:22;65.63;;;15.60;;
36629;SDS011;36256;42.154;23.002;2022-11-18T02:55:53;94.90;;;14.75;;
36629;SDS011;36256;42.154;23.002;2022-11-18T02:58:21;94.22;;;13.02;;
36629;SDS011;36256;42.154;23.002;2022-11-18T03:00:55;76.88;;;14.10;;
36629;SDS011;36256;42.154;23.002;2022-11-18T03:03:34;87.55;;;12.98;;
36629;SDS011;36256;42.154;23.002;2022-11-18T03:09:49;84.55;;;13.40;;
36629;SDS011;36256;42.154;23.002;2022-11-18T03:17:26;77.50;;;12.18;;
36629;SDS011;36256;42.154;23.002;2022-11-18T03:22:47;70.10;;;11.77;;
36629;SDS011;36256;42.154;23.002;2022-11-18T03:25:22;42.33;;;11.90;;
36629;SDS011;36256;42.154;23.002;2022-11-18T03:27:53;58.35;;;11.68;;
36629;SDS011;36256;42.154;23.002;2022-11-18T03:30:28;50.28;;;11.45;;
36629;SDS011;36256;42.154;23.002;2022-11-18T03:32:58;54.15;;;11.18;;
36629;SDS011;36256;42.154;23.002;2022-11-18T03:35:32;55.80;;;11.93;;
36629;SDS011;36256;42.154;23.002;2022-11-18T03:38:04;54.80;;;11.38;;
36629;SDS011;36256;42.154;23.002;2022-11-18T03:40:37;35.83;;;11.85;;
36629;SDS011;36256;42.154;23.002;2022-11-18T03:43:06;55.53;;;11.88;;
36629;SDS011;36256;42.154;23.002;2022-11-18T03:48:19;76.05;;;11.55;;
36629;SDS011;36256;42.154;23.002;2022-11-18T03:50:52;73.97;;;12.35;;
36629;SDS011;36256;42.154;23.002;2022-11-18T03:53:24;75.85;;;12.07;;
36629;SDS011;36256;42.154;23.002;2022-11-18T03:55:54;74.63;;;12.52;;
36629;SDS011;36256;42.154;23.002;2022-11-18T03:58:32;46.15;;;12.18;;
36629;SDS011;36256;42.154;23.002;2022-11-18T04:01:14;55.38;;;12.02;;
36629;SDS011;36256;42.154;23.002;2022-11-18T04:03:46;52.97;;;12.60;;
36629;SDS011;36256;42.154;23.002;2022-11-18T04:09:02;58.55;;;13.98;;
36629;SDS011;36256;42.154;23.002;2022-11-18T04:11:36;45.65;;;13.50;;
36629;SDS011;36256;42.154;23.002;2022-11-18T04:14:31;44.15;;;14.43;;
36629;SDS011;36256;42.154;23.002;2022-11-18T04:17:15;40.92;;;15.15;;
36629;SDS011;36256;42.154;23.002;2022-11-18T04:19:45;61.53;;;13.90;;
36629;SDS011;36256;42.154;23.002;2022-11-18T04:22:12;57.53;;;15.45;;
36629;SDS011;36256;42.154;23.002;2022-11-18T04:24:39;72.25;;;19.95;;
36629;SDS011;36256;42.154;23.002;2022-11-18T04:27:06;51.73;;;16.87;;
36629;SDS011;36256;42.154;23.002;2022-11-18T04:29:33;48.38;;;13.88;;
36629;SDS011;36256;42.154;23.002;2022-11-18T04:32:00;56.45;;;14.00;;
36629;SDS011;36256;42.154;23.002;2022-11-18T04:36:54;65.70;;;14.02;;
36629;SDS011;36256;42.154;23.002;2022-11-18T04:39:20;91.28;;;26.52;;
36629;SDS011;36256;42.154;23.002;2022-11-18T04:41:47;52.05;;;20.30;;
36629;SDS011;36256;42.154;23.002;2022-11-18T04:44:26;40.42;;;16.02;;
36629;SDS011;36256;42.154;23.002;2022-11-18T04:46:55;29.75;;;13.65;;
36629;SDS011;36256;42.154;23.002;2022-11-18T04:49:23;30.00;;;12.90;;
36629;SDS011;36256;42.154;23.002;2022-11-18T04:51:51;24.30;;;11.93;;
36629;SDS011;36256;42.154;23.002;2022-11-18T04:54:18;34.00;;;12.38;;
36629;SDS011;36256;42.154;23.002;2022-11-18T04:56:46;41.00;;;14.00;;
36629;SDS011;36256;42.154;23.002;2022-11-18T04:59:16;42.55;;;17.73;;
36629;SDS011;36256;42.154;23.002;2022-11-18T05:01:44;41.95;;;17.88;;
36629;SDS011;36256;42.154;23.002;2022-11-18T05:04:12;40.80;;;18.52;;
36629;SDS011;36256;42.154;23.002;2022-11-18T05:06:41;34.55;;;16.50;;
36629;SDS011;36256;42.154;23.002;2022-11-18T05:09:07;38.67;;;17.20;;
36629;SDS011;36256;42.154;23.002;2022-11-18T05:11:34;48.70;;;14.98;;
36629;SDS011;36256;42.154;23.002;2022-11-18T05:14:20;42.17;;;16.13;;
36629;SDS011;36256;42.154;23.002;2022-11-18T05:16:46;34.80;;;18.70;;
36629;SDS011;36256;42.154;23.002;2022-11-18T05:19:13;21.73;;;13.87;;
36629;SDS011;36256;42.154;23.002;2022-11-18T05:21:39;16.58;;;11.07;;
36629;SDS011;36256;42.154;23.002;2022-11-18T05:24:06;16.77;;;10.20;;
36629;SDS011;36256;42.154;23.002;2022-11-18T05:26:33;14.93;;;8.98;;
36629;SDS011;36256;42.154;23.002;2022-11-18T05:28:59;13.87;;;9.67;;
36629;SDS011;36256;42.154;23.002;2022-11-18T05:31:26;16.30;;;9.52;;
36629;SDS011;36256;42.154;23.002;2022-11-18T05:33:52;18.42;;;11.98;;
36629;SDS011;36256;42.154;23.002;2022-11-18T05:36:19;33.83;;;19.33;;
36629;SDS011;36256;42.154;23.002;2022-11-18T05:38:46;35.42;;;22.30;;
36629;SDS011;36256;42.154;23.002;2022-11-18T05:41:13;49.45;;;28.75;;
36629;SDS011;36256;42.154;23.002;2022-11-18T05:44:00;67.70;;;34.88;;
36629;SDS011;36256;42.154;23.002;2022-11-18T05:48:54;43.42;;;25.80;;
36629;SDS011;36256;42.154;23.002;2022-11-18T05:51:21;27.40;;;14.95;;
36629;SDS011;36256;42.154;23.002;2022-11-18T05:53:48;17.55;;;10.68;;
36629;SDS011;36256;42.154;23.002;2022-11-18T05:58:59;17.33;;;10.43;;
36629;SDS011;36256;42.154;23.002;2022-11-18T06:01:31;20.13;;;12.07;;
36629;SDS011;36256;42.154;23.002;2022-11-18T06:04:12;23.92;;;15.95;;
36629;SDS011;36256;42.154;23.002;2022-11-18T06:06:42;24.70;;;11.82;;
36629;SDS011;36256;42.154;23.002;2022-11-18T06:09:11;19.27;;;12.23;;
36629;SDS011;36256;42.154;23.002;2022-11-18T06:11:42;37.05;;;23.00;;
36629;SDS011;36256;42.154;23.002;2022-11-18T06:17:11;35.33;;;22.58;;
36629;SDS011;36256;42.154;23.002;2022-11-18T06:19:43;34.28;;;21.95;;
36629;SDS011;36256;42.154;23.002;2022-11-18T06:22:09;37.20;;;22.17;;
36629;SDS011;36256;42.154;23.002;2022-11-18T06:24:36;24.58;;;16.95;;
36629;SDS011;36256;42.154;23.002;2022-11-18T06:27:03;28.63;;;15.70;;
36629;SDS011;36256;42.154;23.002;2022-11-18T06:29:30;23.77;;;15.18;;
36629;SDS011;36256;42.154;23.002;2022-11-18T06:31:57;19.13;;;11.93;;
36629;SDS011;36256;42.154;23.002;2022-11-18T06:34:23;17.90;;;11.30;;
36629;SDS011;36256;42.154;23.002;2022-11-18T06:36:50;12.82;;;7.90;;
36629;SDS011;36256;42.154;23.002;2022-11-18T06:39:17;7.82;;;6.15;;
36629;SDS011;36256;42.154;23.002;2022-11-18T06:41:44;10.10;;;5.90;;
36629;SDS011;36256;42.154;23.002;2022-11-18T06:44:10;8.13;;;5.63;;
36629;SDS011;36256;42.154;23.002;2022-11-18T06:46:37;11.35;;;7.65;;
36629;SDS011;36256;42.154;23.002;2022-11-18T06:49:23;11.80;;;8.05;;
36629;SDS011;36256;42.154;23.002;2022-11-18T06:51:50;11.30;;;6.50;;
36629;SDS011;36256;42.154;23.002;2022-11-18T06:54:17;8.43;;;6.50;;
36629;SDS011;36256;42.154;23.002;2022-11-18T06:56:44;10.52;;;7.60;;
36629;SDS011;36256;42.154;23.002;2022-11-18T06:59:11;13.88;;;8.65;;
36629;SDS011;36256;42.154;23.002;2022-11-18T07:01:38;14.10;;;8.52;;
36629;SDS011;36256;42.154;23.002;2022-11-18T07:04:06;14.82;;;9.27;;
36629;SDS011;36256;42.154;23.002;2022-11-18T07:06:33;15.10;;;9.97;;
36629;SDS011;36256;42.154;23.002;2022-11-18T07:09:04;23.23;;;10.98;;
36629;SDS011;36256;42.154;23.002;2022-11-18T07:11:32;18.65;;;10.57;;
36629;SDS011;36256;42.154;23.002;2022-11-18T07:14:00;16.70;;;10.40;;
36629;SDS011;36256;42.154;23.002;2022-11-18T07:16:26;16.95;;;10.13;;
36629;SDS011;36256;42.154;23.002;2022-11-18T07:18:54;21.27;;;11.80;;
36629;SDS011;36256;42.154;23.002;2022-11-18T07:21:22;17.58;;;11.23;;
36629;SDS011;36256;42.154;23.002;2022-11-18T07:23:54;18.92;;;12.48;;
36629;SDS011;36256;42.154;23.002;2022-11-18T07:26:21;17.08;;;12.07;;
36629;SDS011;36256;42.154;23.002;2022-11-18T07:28:48;20.08;;;13.13;;
36629;SDS011;36256;42.154;23.002;2022-11-18T07:31:16;28.05;;;17.40;;
36629;SDS011;36256;42.154;23.002;2022-11-18T07:33:44;25.80;;;17.25;;
36629;SDS011;36256;42.154;23.002;2022-11-18T07:36:16;26.45;;;17.65;;
36629;SDS011;36256;42.154;23.002;2022-11-18T07:38:44;20.25;;;14.50;;
36629;SDS011;36256;42.154;23.002;2022-11-18T07:41:19;17.65;;;9.75;;
36629;SDS011;36256;42.154;23.002;2022-11-18T07:43:48;15.57;;;8.07;;
36629;SDS011;36256;42.154;23.002;2022-11-18T07:46:26;10.32;;;6.55;;
36629;SDS011;36256;42.154;23.002;2022-11-18T07:48:54;9.30;;;6.55;;
36629;SDS011;36256;42.154;23.002;2022-11-18T07:51:23;8.10;;;6.07;;
36629;SDS011;36256;42.154;23.002;2022-11-18T07:53:51;8.57;;;6.40;;
36629;SDS011;36256;42.154;23.002;2022-11-18T07:56:18;8.07;;;6.05;;
36629;SDS011;36256;42.154;23.002;2022-11-18T07:58:45;10.05;;;5.40;;
36629;SDS011;36256;42.154;23.002;2022-11-18T08:01:16;7.22;;;5.45;;
36629;SDS011;36256;42.154;23.002;2022-11-18T08:03:45;8.77;;;5.53;;
36629;SDS011;36256;42.154;23.002;2022-11-18T08:06:13;7.93;;;5.30;;
36629;SDS011;36256;42.154;23.002;2022-11-18T08:08:41;7.60;;;5.20;;
36629;SDS011;36256;42.154;23.002;2022-11-18T08:11:10;9.75;;;6.22;;
36629;SDS011;36256;42.154;23.002;2022-11-18T08:13:46;15.18;;;10.45;;
36629;SDS011;36256;42.154;23.002;2022-11-18T08:16:14;24.27;;;14.70;;
36629;SDS011;36256;42.154;23.002;2022-11-18T08:18:43;21.58;;;12.10;;
36629;SDS011;36256;42.154;23.002;2022-11-18T08:21:10;17.58;;;11.88;;
36629;SDS011;36256;42.154;23.002;2022-11-18T08:23:39;27.63;;;11.45;;
36629;SDS011;36256;42.154;23.002;2022-11-18T08:28:44;18.08;;;11.35;;
36629;SDS011;36256;42.154;23.002;2022-11-18T08:31:11;17.85;;;10.75;;
36629;SDS011;36256;42.154;23.002;2022-11-18T08:33:40;17.60;;;11.27;;
36629;SDS011;36256;42.154;23.002;2022-11-18T08:36:08;25.17;;;12.77;;
36629;SDS011;36256;42.154;23.002;2022-11-18T08:38:37;30.52;;;12.10;;
36629;SDS011;36256;42.154;23.002;2022-11-18T08:41:04;20.67;;;10.90;;
36629;SDS011;36256;42.154;23.002;2022-11-18T08:43:34;21.60;;;10.95;;
36629;SDS011;36256;42.154;23.002;2022-11-18T08:46:01;21.55;;;10.48;;
36629;SDS011;36256;42.154;23.002;2022-11-18T08:48:28;20.30;;;12.40;;
36629;SDS011;36256;42.154;23.002;2022-11-18T08:50:55;23.77;;;13.20;;
36629;SDS011;36256;42.154;23.002;2022-11-18T08:53:23;18.80;;;12.30;;
36629;SDS011;36256;42.154;23.002;2022-11-18T08:55:56;16.67;;;11.90;;
36629;SDS011;36256;42.154;23.002;2022-11-18T08:58:24;14.63;;;10.18;;
36629;SDS011;36256;42.154;23.002;2022-11-18T09:00:52;15.52;;;11.93;;
36629;SDS011;36256;42.154;23.002;2022-11-18T09:03:19;12.38;;;9.10;;
36629;SDS011;36256;42.154;23.002;2022-11-18T09:05:46;11.98;;;9.27;;
36629;SDS011;36256;42.154;23.002;2022-11-18T09:08:13;12.80;;;8.77;;
36629;SDS011;36256;42.154;23.002;2022-11-18T09:13:07;13.68;;;10.70;;
36629;SDS011;36256;42.154;23.002;2022-11-18T09:15:56;15.82;;;11.30;;
36629;SDS011;36256;42.154;23.002;2022-11-18T09:18:23;13.88;;;10.68;;
36629;SDS011;36256;42.154;23.002;2022-11-18T09:20:54;27.67;;;11.67;;
36629;SDS011;36256;42.154;23.002;2022-11-18T09:23:24;18.65;;;10.98;;
36629;SDS011;36256;42.154;23.002;2022-11-18T09:25:57;13.23;;;9.87;;
36629;SDS011;36256;42.154;23.002;2022-11-18T09:28:29;13.13;;;9.45;;
36629;SDS011;36256;42.154;23.002;2022-11-18T09:30:56;12.02;;;9.88;;
36629;SDS011;36256;42.154;23.002;2022-11-18T09:33:23;14.20;;;11.27;;
36629;SDS011;36256;42.154;23.002;2022-11-18T09:35:50;19.08;;;14.80;;
36629;SDS011;36256;42.154;23.002;2022-11-18T09:38:16;17.10;;;13.33;;
36629;SDS011;36256;42.154;23.002;2022-11-18T09:43:20;15.75;;;12.15;;
36629;SDS011;36256;42.154;23.002;2022-11-18T09:46:15;17.55;;;13.55;;
36629;SDS011;36256;42.154;23.002;2022-11-18T09:48:47;22.58;;;17.13;;
36629;SDS011;36256;42.154;23.002;2022-11-18T09:51:37;27.10;;;20.75;;
36629;SDS011;36256;42.154;23.002;2022-11-18T09:54:09;26.80;;;19.08;;
36629;SDS011;36256;42.154;23.002;2022-11-18T09:56:40;28.73;;;21.50;;
36629;SDS011;36256;42.154;23.002;2022-11-18T09:59:08;28.75;;;20.20;;
36629;SDS011;36256;42.154;23.002;2022-11-18T10:01:38;30.65;;;20.83;;
36629;SDS011;36256;42.154;23.002;2022-11-18T10:04:05;33.95;;;24.33;;
36629;SDS011;36256;42.154;23.002;2022-11-18T10:06:31;32.50;;;25.20;;
36629;SDS011;36256;42.154;23.002;2022-11-18T10:12:21;28.58;;;21.00;;
36629;SDS011;36256;42.154;23.002;2022-11-18T10:25:59;25.35;;;18.25;;
36629;SDS011;36256;42.154;23.002;2022-11-18T10:28:27;23.63;;;19.00;;
36629;SDS011;36256;42.154;23.002;2022-11-18T10:31:08;31.88;;;24.58;;
36629;SDS011;36256;42.154;23.002;2022-11-18T10:33:37;35.08;;;25.88;;
36629;SDS011;36256;42.154;23.002;2022-11-18T10:36:13;44.63;;;22.88;;
36629;SDS011;36256;42.154;23.002;2022-11-18T10:39:03;23.15;;;15.93;;
36629;SDS011;36256;42.154;23.002;2022-11-18T10:41:39;19.20;;;15.32;;
36629;SDS011;36256;42.154;23.002;2022-11-18T10:49:46;18.15;;;12.23;;
36629;SDS011;36256;42.154;23.002;2022-11-18T10:52:13;12.93;;;9.13;;
36629;SDS011;36256;42.154;23.002;2022-11-18T10:54:40;8.70;;;5.93;;
36629;SDS011;36256;42.154;23.002;2022-11-18T10:57:20;7.55;;;5.20;;
36629;SDS011;36256;42.154;23.002;2022-11-18T10:59:50;9.23;;;5.10;;
36629;SDS011;36256;42.154;23.002;2022-11-18T11:02:28;12.15;;;6.80;;
36629;SDS011;36256;42.154;23.002;2022-11-18T11:05:01;7.65;;;4.88;;
36629;SDS011;36256;42.154;23.002;2022-11-18T11:07:33;9.50;;;5.20;;
36629;SDS011;36256;42.154;23.002;2022-11-18T11:12:32;7.15;;;5.30;;
36629;SDS011;36256;42.154;23.002;2022-11-18T11:15:13;7.55;;;5.47;;
36629;SDS011;36256;42.154;23.002;2022-11-18T11:17:45;10.70;;;5.10;;
36629;SDS011;36256;42.154;23.002;2022-11-18T11:20:41;7.28;;;5.53;;
36629;SDS011;36256;42.154;23.002;2022-11-18T11:23:11;11.33;;;7.13;;
36629;SDS011;36256;42.154;23.002;2022-11-18T11:34:16;11.23;;;6.40;;
36629;SDS011;36256;42.154;23.002;2022-11-18T11:50:54;7.28;;;3.55;;
36629;SDS011;36256;42.154;23.002;2022-11-18T12:01:30;5.03;;;3.22;;
36629;SDS011;36256;42.154;23.002;2022-11-18T12:07:14;8.75;;;4.28;;
36629;SDS011;36256;42.154;23.002;2022-11-18T12:12:44;9.70;;;3.90;;
36629;SDS011;36256;42.154;23.002;2022-11-18T12:21:02;9.75;;;3.92;;
36629;SDS011;36256;42.154;23.002;2022-11-18T12:23:29;7.07;;;4.10;;
36629;SDS011;36256;42.154;23.002;2022-11-18T12:25:58;14.00;;;9.40;;
36629;SDS011;36256;42.154;23.002;2022-11-18T12:28:48;11.65;;;8.32;;
36629;SDS011;36256;42.154;23.002;2022-11-18T12:33:44;10.57;;;4.90;;
36629;SDS011;36256;42.154;23.002;2022-11-18T12:38:58;12.52;;;7.15;;
36629;SDS011;36256;42.154;23.002;2022-11-18T12:44:51;20.52;;;11.02;;
36629;SDS011;36256;42.154;23.002;2022-11-18T12:48:00;12.80;;;6.10;;
36629;SDS011;36256;42.154;23.002;2022-11-18T12:50:12;10.05;;;3.80;;
36629;SDS011;36256;42.154;23.002;2022-11-18T12:55:25;4.07;;;3.03;;
36629;SDS011;36256;42.154;23.002;2022-11-18T12:57:57;5.80;;;3.28;;
36629;SDS011;36256;42.154;23.002;2022-11-18T13:02:54;6.95;;;3.90;;
36629;SDS011;36256;42.154;23.002;2022-11-18T13:05:32;5.88;;;3.83;;
36629;SDS011;36256;42.154;23.002;2022-11-18T13:08:09;9.30;;;4.07;;
36629;SDS011;36256;42.154;23.002;2022-11-18T13:13:25;4.20;;;3.03;;
36629;SDS011;36256;42.154;23.002;2022-11-18T13:15:59;5.80;;;3.85;;
36629;SDS011;36256;42.154;23.002;2022-11-18T13:18:49;7.63;;;4.00;;
36629;SDS011;36256;42.154;23.002;2022-11-18T13:21:21;8.00;;;3.55;;
36629;SDS011;36256;42.154;23.002;2022-11-18T13:24:10;7.22;;;3.67;;
36629;SDS011;36256;42.154;23.002;2022-11-18T13:26:39;7.28;;;3.75;;
36629;SDS011;36256;42.154;23.002;2022-11-18T13:29:16;7.18;;;4.07;;
36629;SDS011;36256;42.154;23.002;2022-11-18T13:32:10;10.85;;;4.00;;
36629;SDS011;36256;42.154;23.002;2022-11-18T13:37:24;10.35;;;3.95;;
36629;SDS011;36256;42.154;23.002;2022-11-18T13:39:53;7.40;;;3.90;;
36629;SDS011;36256;42.154;23.002;2022-11-18T13:42:24;7.63;;;4.65;;
36629;SDS011;36256;42.154;23.002;2022-11-18T13:44:53;8.38;;;5.03;;
36629;SDS011;36256;42.154;23.002;2022-11-18T13:52:30;4.50;;;3.27;;
36629;SDS011;36256;42.154;23.002;2022-11-18T13:55:27;8.52;;;4.57;;
36629;SDS011;36256;42.154;23.002;2022-11-18T14:00:30;15.73;;;7.22;;
36629;SDS011;36256;42.154;23.002;2022-11-18T14:03:01;11.32;;;6.13;;
36629;SDS011;36256;42.154;23.002;2022-11-18T14:05:31;10.88;;;5.53;;
36629;SDS011;36256;42.154;23.002;2022-11-18T14:10:28;9.83;;;6.13;;
36629;SDS011;36256;42.154;23.002;2022-11-18T14:13:01;10.48;;;4.60;;
36629;SDS011;36256;42.154;23.002;2022-11-18T14:17:56;7.67;;;4.50;;
36629;SDS011;36256;42.154;23.002;2022-11-18T14:20:25;33.38;;;17.45;;
36629;SDS011;36256;42.154;23.002;2022-11-18T14:22:54;13.05;;;7.03;;
36629;SDS011;36256;42.154;23.002;2022-11-18T14:25:28;15.25;;;8.95;;
36629;SDS011;36256;42.154;23.002;2022-11-18T14:33:24;6.85;;;4.60;;
36629;SDS011;36256;42.154;23.002;2022-11-18T14:41:14;10.23;;;5.82;;
36629;SDS011;36256;42.154;23.002;2022-11-18T14:44:09;9.35;;;5.65;;
36629;SDS011;36256;42.154;23.002;2022-11-18T14:46:36;14.03;;;6.40;;
36629;SDS011;36256;42.154;23.002;2022-11-18T14:49:04;7.80;;;5.30;;
36629;SDS011;36256;42.154;23.002;2022-11-18T14:51:35;11.88;;;4.30;;
36629;SDS011;36256;42.154;23.002;2022-11-18T14:54:01;7.57;;;4.47;;
36629;SDS011;36256;42.154;23.002;2022-11-18T14:56:32;8.27;;;4.50;;
36629;SDS011;36256;42.154;23.002;2022-11-18T14:59:00;6.28;;;4.18;;
36629;SDS011;36256;42.154;23.002;2022-11-18T15:01:26;8.80;;;5.27;;
36629;SDS011;36256;42.154;23.002;2022-11-18T15:03:56;9.77;;;6.30;;
36629;SDS011;36256;42.154;23.002;2022-11-18T15:06:22;9.33;;;5.90;;
36629;SDS011;36256;42.154;23.002;2022-11-18T15:08:50;19.80;;;11.60;;
36629;SDS011;36256;42.154;23.002;2022-11-18T15:11:17;10.80;;;5.60;;
36629;SDS011;36256;42.154;23.002;2022-11-18T15:13:44;10.38;;;5.53;;
36629;SDS011;36256;42.154;23.002;2022-11-18T15:18:41;11.93;;;6.38;;
36629;SDS011;36256;42.154;23.002;2022-11-18T15:21:09;7.90;;;5.00;;
36629;SDS011;36256;42.154;23.002;2022-11-18T15:23:36;9.20;;;5.60;;
36629;SDS011;36256;42.154;23.002;2022-11-18T15:26:08;9.95;;;5.07;;
36629;SDS011;36256;42.154;23.002;2022-11-18T15:28:52;10.35;;;7.50;;
36629;SDS011;36256;42.154;23.002;2022-11-18T15:31:20;10.52;;;5.90;;
36629;SDS011;36256;42.154;23.002;2022-11-18T15:33:48;8.60;;;5.60;;
36629;SDS011;36256;42.154;23.002;2022-11-18T15:36:17;7.75;;;4.75;;
36629;SDS011;36256;42.154;23.002;2022-11-18T15:38:46;9.05;;;5.30;;
36629;SDS011;36256;42.154;23.002;2022-11-18T15:41:14;8.60;;;5.82;;
36629;SDS011;36256;42.154;23.002;2022-11-18T15:43:43;12.43;;;6.50;;
36629;SDS011;36256;42.154;23.002;2022-11-18T15:46:10;6.35;;;4.95;;
36629;SDS011;36256;42.154;23.002;2022-11-18T15:48:37;11.67;;;5.50;;
36629;SDS011;36256;42.154;23.002;2022-11-18T15:51:04;9.02;;;5.45;;
36629;SDS011;36256;42.154;23.002;2022-11-18T15:53:37;9.40;;;4.82;;
36629;SDS011;36256;42.154;23.002;2022-11-18T16:01:33;6.18;;;4.50;;
36629;SDS011;36256;42.154;23.002;2022-11-18T16:04:02;9.18;;;4.78;;
36629;SDS011;36256;42.154;23.002;2022-11-18T16:06:31;8.77;;;4.97;;
36629;SDS011;36256;42.154;23.002;2022-11-18T16:08:58;9.32;;;5.40;;
36629;SDS011;36256;42.154;23.002;2022-11-18T16:11:26;12.10;;;7.80;;
36629;SDS011;36256;42.154;23.002;2022-11-18T16:14:13;10.63;;;4.60;;
36629;SDS011;36256;42.154;23.002;2022-11-18T16:16:42;10.00;;;5.63;;
36629;SDS011;36256;42.154;23.002;2022-11-18T16:19:11;6.47;;;4.38;;
36629;SDS011;36256;42.154;23.002;2022-11-18T16:21:40;7.07;;;4.22;;
36629;SDS011;36256;42.154;23.002;2022-11-18T16:24:09;6.70;;;4.40;;
36629;SDS011;36256;42.154;23.002;2022-11-18T16:26:37;12.15;;;6.43;;
36629;SDS011;36256;42.154;23.002;2022-11-18T16:29:04;8.55;;;4.97;;
36629;SDS011;36256;42.154;23.002;2022-11-18T16:31:33;6.70;;;4.60;;
36629;SDS011;36256;42.154;23.002;2022-11-18T16:36:37;7.47;;;4.40;;
36629;SDS011;36256;42.154;23.002;2022-11-18T16:39:05;9.00;;;4.47;;
36629;SDS011;36256;42.154;23.002;2022-11-18T16:41:33;5.95;;;4.30;;
36629;SDS011;36256;42.154;23.002;2022-11-18T16:44:01;6.47;;;4.32;;
36629;SDS011;36256;42.154;23.002;2022-11-18T16:46:33;9.65;;;5.00;;
36629;SDS011;36256;42.154;23.002;2022-11-18T16:49:02;7.75;;;4.70;;
36629;SDS011;36256;42.154;23.002;2022-11-18T16:51:30;6.30;;;4.50;;
36629;SDS011;36256;42.154;23.002;2022-11-18T16:54:00;6.72;;;5.00;;
36629;SDS011;36256;42.154;23.002;2022-11-18T16:56:29;9.95;;;5.35;;
36629;SDS011;36256;42.154;23.002;2022-11-18T16:58:58;10.45;;;5.78;;
36629;SDS011;36256;42.154;23.002;2022-11-18T17:01:29;8.23;;;4.30;;
36629;SDS011;36256;42.154;23.002;2022-11-18T17:03:58;8.05;;;4.45;;
36629;SDS011;36256;42.154;23.002;2022-11-18T17:06:26;8.00;;;4.43;;
36629;SDS011;36256;42.154;23.002;2022-11-18T17:08:54;8.25;;;4.55;;
36629;SDS011;36256;42.154;23.002;2022-11-18T17:11:21;9.67;;;4.83;;
36629;SDS011;36256;42.154;23.002;2022-11-18T17:13:48;20.40;;;14.35;;
36629;SDS011;36256;42.154;23.002;2022-11-18T17:16:23;13.73;;;7.70;;
36629;SDS011;36256;42.154;23.002;2022-11-18T17:21:24;10.00;;;6.43;;
36629;SDS011;36256;42.154;23.002;2022-11-18T17:23:52;12.25;;;8.00;;
36629;SDS011;36256;42.154;23.002;2022-11-18T17:26:20;18.25;;;11.18;;
36629;SDS011;36256;42.154;23.002;2022-11-18T17:28:49;12.63;;;7.82;;
36629;SDS011;36256;42.154;23.002;2022-11-18T17:31:17;14.65;;;8.85;;
36629;SDS011;36256;42.154;23.002;2022-11-18T17:33:45;17.08;;;11.27;;
36629;SDS011;36256;42.154;23.002;2022-11-18T17:36:14;11.43;;;7.78;;
36629;SDS011;36256;42.154;23.002;2022-11-18T17:38:43;7.88;;;4.55;;